sensor_id;sensor_type;location;lat;lon;timestamp;pressure;altitude;pressure_sealevel;temperature;humidity
21902;BME280;11115;46.038;14.612;2023-10-09T00:02:13;99463.16;;;13.67;100.00
21902;BME280;11115;46.038;14.612;2023-10-09T00:04:46;99464.59;;;13.65;100.00
21902;BME280;11115;46.038;14.612;2023-10-09T00:07:33;99479.44;;;13.42;100.00
21902;BME280;11115;46.038;14.612;2023-10-09T00:10:12;99480.34;;;13.56;100.00
21902;BME280;11115;46.038;14.612;2023-10-09T00:12:49;99478.78;;;13.50;100.00
21902;BME280;11115;46.038;14.612;2023-10-09T00:15:28;99474.31;;;13.49;100.00
21902;BME280;11115;46.038;14.612;2023-10-09T00:18:00;99470.44;;;13.50;100.00
21902;BME280;11115;46.038;14.612;2023-10-09T00:20:44;99469.78;;;13.39;100.00
21902;BME280;11115;46.038;14.612;2023-10-09T00:23:21;99472.13;;;13.32;100.00
21902;BME280;11115;46.038;14.612;2023-10-09T00:26:03;99468.06;;;13.24;100.00
21902;BME280;11115;46.038;14.612;2023-10-09T00:28:52;99445.47;;;13.31;100.00
21902;BME280;11115;46.038;14.612;2023-10-09T00:31:24;99453.13;;;13.53;100.00
21902;BME280;11115;46.038;14.612;2023-10-09T00:34:04;99441.47;;;13.37;100.00
21902;BME280;11115;46.038;14.612;2023-10-09T00:36:46;99437.72;;;13.28;100.00
21902;BME280;11115;46.038;14.612;2023-10-09T00:39:29;99430.03;;;13.39;100.00
21902;BME280;11115;46.038;14.612;2023-10-09T00:42:17;99437.72;;;13.28;100.00
21902;BME280;11115;46.038;14.612;2023-10-09T00:45:04;99435.75;;;13.10;100.00
21902;BME280;11115;46.038;14.612;2023-10-09T00:47:54;99417.53;;;12.85;100.00
21902;BME280;11115;46.038;14.612;2023-10-09T00:50:35;99433.06;;;13.04;100.00
21902;BME280;11115;46.038;14.612;2023-10-09T00:53:17;99428.34;;;13.05;100.00
21902;BME280;11115;46.038;14.612;2023-10-09T00:55:47;99428.63;;;13.03;100.00
21902;BME280;11115;46.038;14.612;2023-10-09T00:58:29;99420.81;;;13.05;100.00
21902;BME280;11115;46.038;14.612;2023-10-09T01:01:10;99419.34;;;12.94;100.00
21902;BME280;11115;46.038;14.612;2023-10-09T01:03:50;99418.44;;;12.99;100.00
21902;BME280;11115;46.038;14.612;2023-10-09T01:06:22;99415.44;;;12.95;100.00
21902;BME280;11115;46.038;14.612;2023-10-09T01:08:55;99406.03;;;13.10;100.00
21902;BME280;11115;46.038;14.612;2023-10-09T01:11:39;99404.97;;;13.06;100.00
21902;BME280;11115;46.038;14.612;2023-10-09T01:14:33;99400.28;;;12.69;100.00
21902;BME280;11115;46.038;14.612;2023-10-09T01:17:16;99401.88;;;12.56;100.00
21902;BME280;11115;46.038;14.612;2023-10-09T01:20:07;99410.44;;;12.79;100.00
21902;BME280;11115;46.038;14.612;2023-10-09T01:23:03;99406.59;;;12.74;100.00
21902;BME280;11115;46.038;14.612;2023-10-09T01:25:35;99393.31;;;12.53;100.00
21902;BME280;11115;46.038;14.612;2023-10-09T01:28:33;99413.50;;;12.77;100.00
21902;BME280;11115;46.038;14.612;2023-10-09T01:31:16;99418.28;;;12.71;100.00
21902;BME280;11115;46.038;14.612;2023-10-09T01:34:02;99410.25;;;12.70;100.00
21902;BME280;11115;46.038;14.612;2023-10-09T01:36:59;99405.63;;;12.65;100.00
21902;BME280;11115;46.038;14.612;2023-10-09T01:39:44;99400.16;;;12.60;100.00
21902;BME280;11115;46.038;14.612;2023-10-09T01:42:21;99402.91;;;12.23;100.00
21902;BME280;11115;46.038;14.612;2023-10-09T01:45:03;99380.78;;;12.18;100.00
21902;BME280;11115;46.038;14.612;2023-10-09T01:47:57;99387.16;;;11.94;100.00
21902;BME280;11115;46.038;14.612;2023-10-09T01:50:38;99390.19;;;11.98;100.00
21902;BME280;11115;46.038;14.612;2023-10-09T01:53:15;99353.94;;;11.89;100.00
21902;BME280;11115;46.038;14.612;2023-10-09T01:55:51;99373.94;;;12.29;100.00
21902;BME280;11115;46.038;14.612;2023-10-09T01:58:29;99360.88;;;12.10;100.00
21902;BME280;11115;46.038;14.612;2023-10-09T02:01:04;99386.66;;;12.11;100.00
21902;BME280;11115;46.038;14.612;2023-10-09T02:03:35;99374.16;;;12.13;100.00
21902;BME280;11115;46.038;14.612;2023-10-09T02:06:21;99294.75;;;11.75;100.00
21902;BME280;11115;46.038;14.612;2023-10-09T02:09:04;99374.25;;;12.27;100.00
21902;BME280;11115;46.038;14.612;2023-10-09T02:11:51;99373.78;;;12.01;100.00
21902;BME280;11115;46.038;14.612;2023-10-09T02:14:31;99363.13;;;12.08;100.00
21902;BME280;11115;46.038;14.612;2023-10-09T02:17:16;99363.22;;;11.79;100.00
21902;BME280;11115;46.038;14.612;2023-10-09T02:19:54;99365.47;;;12.01;100.00
21902;BME280;11115;46.038;14.612;2023-10-09T02:22:29;99363.03;;;11.95;100.00
21902;BME280;11115;46.038;14.612;2023-10-09T02:25:10;99343.59;;;11.71;100.00
21902;BME280;11115;46.038;14.612;2023-10-09T02:27:48;99361.63;;;11.97;100.00
21902;BME280;11115;46.038;14.612;2023-10-09T02:30:28;99360.69;;;11.83;100.00
21902;BME280;11115;46.038;14.612;2023-10-09T02:33:15;99314.09;;;11.85;100.00
21902;BME280;11115;46.038;14.612;2023-10-09T02:36:00;99355.81;;;11.70;100.00
21902;BME280;11115;46.038;14.612;2023-10-09T02:38:35;99362.47;;;11.69;100.00
21902;BME280;11115;46.038;14.612;2023-10-09T02:41:19;99336.88;;;11.53;100.00
21902;BME280;11115;46.038;14.612;2023-10-09T02:44:00;99352.91;;;11.85;100.00
21902;BME280;11115;46.038;14.612;2023-10-09T02:46:40;99336.19;;;11.66;100.00
21902;BME280;11115;46.038;14.612;2023-10-09T02:49:11;99331.41;;;11.72;100.00
21902;BME280;11115;46.038;14.612;2023-10-09T02:51:52;99327.16;;;11.55;100.00
21902;BME280;11115;46.038;14.612;2023-10-09T02:54:39;99338.56;;;11.78;100.00
21902;BME280;11115;46.038;14.612;2023-10-09T02:57:37;99329.75;;;11.71;100.00
21902;BME280;11115;46.038;14.612;2023-10-09T03:00:10;99326.31;;;11.84;100.00
21902;BME280;11115;46.038;14.612;2023-10-09T03:02:55;99323.59;;;11.74;100.00
21902;BME280;11115;46.038;14.612;2023-10-09T03:05:40;99310.38;;;11.47;100.00
21902;BME280;11115;46.038;14.612;2023-10-09T03:08:14;99319.41;;;11.58;100.00
21902;BME280;11115;46.038;14.612;2023-10-09T03:10:53;99323.09;;;11.48;100.00
21902;BME280;11115;46.038;14.612;2023-10-09T03:13:32;99307.75;;;11.55;100.00
21902;BME280;11115;46.038;14.612;2023-10-09T03:16:07;99304.50;;;11.72;100.00
21902;BME280;11115;46.038;14.612;2023-10-09T03:18:51;99306.63;;;11.56;100.00
21902;BME280;11115;46.038;14.612;2023-10-09T03:21:20;99312.00;;;11.48;100.00
21902;BME280;11115;46.038;14.612;2023-10-09T03:23:52;99311.94;;;11.53;100.00
21902;BME280;11115;46.038;14.612;2023-10-09T03:26:30;99303.16;;;11.70;100.00
21902;BME280;11115;46.038;14.612;2023-10-09T03:29:03;99264.09;;;11.47;100.00
21902;BME280;11115;46.038;14.612;2023-10-09T03:31:53;99284.81;;;11.74;100.00
21902;BME280;11115;46.038;14.612;2023-10-09T03:34:29;99259.25;;;11.58;100.00
21902;BME280;11115;46.038;14.612;2023-10-09T03:37:15;99285.31;;;11.76;100.00
21902;BME280;11115;46.038;14.612;2023-10-09T03:40:10;99267.44;;;11.68;100.00
21902;BME280;11115;46.038;14.612;2023-10-09T03:42:52;99294.16;;;11.83;100.00
21902;BME280;11115;46.038;14.612;2023-10-09T03:45:32;99281.66;;;11.85;100.00
21902;BME280;11115;46.038;14.612;2023-10-09T03:48:10;99279.16;;;11.84;100.00
21902;BME280;11115;46.038;14.612;2023-10-09T03:50:48;99257.59;;;11.57;100.00
21902;BME280;11115;46.038;14.612;2023-10-09T03:53:36;99263.41;;;11.55;100.00
21902;BME280;11115;46.038;14.612;2023-10-09T03:56:21;99269.66;;;11.66;100.00
21902;BME280;11115;46.038;14.612;2023-10-09T03:59:06;99266.44;;;11.59;100.00
21902;BME280;11115;46.038;14.612;2023-10-09T04:01:50;99267.59;;;11.77;100.00
21902;BME280;11115;46.038;14.612;2023-10-09T04:04:25;99263.72;;;11.78;100.00
21902;BME280;11115;46.038;14.612;2023-10-09T04:07:00;99259.25;;;11.82;100.00
21902;BME280;11115;46.038;14.612;2023-10-09T04:09:34;99257.09;;;11.74;100.00
21902;BME280;11115;46.038;14.612;2023-10-09T04:12:18;99248.31;;;11.67;100.00
21902;BME280;11115;46.038;14.612;2023-10-09T04:14:57;99243.44;;;11.59;100.00
21902;BME280;11115;46.038;14.612;2023-10-09T04:17:45;99220.56;;;11.48;100.00
21902;BME280;11115;46.038;14.612;2023-10-09T04:20:21;99242.47;;;11.68;100.00
21902;BME280;11115;46.038;14.612;2023-10-09T04:23:13;99231.38;;;11.68;100.00
21902;BME280;11115;46.038;14.612;2023-10-09T04:26:06;99228.09;;;11.66;100.00
21902;BME280;11115;46.038;14.612;2023-10-09T04:28:42;99221.06;;;11.74;100.00
21902;BME280;11115;46.038;14.612;2023-10-09T04:31:21;99229.34;;;11.79;100.00
21902;BME280;11115;46.038;14.612;2023-10-09T04:34:04;99213.16;;;11.43;100.00
21902;BME280;11115;46.038;14.612;2023-10-09T04:36:55;99218.50;;;11.59;100.00
21902;BME280;11115;46.038;14.612;2023-10-09T04:39:29;99224.94;;;11.73;100.00
21902;BME280;11115;46.038;14.612;2023-10-09T04:42:24;99218.13;;;11.65;100.00
21902;BME280;11115;46.038;14.612;2023-10-09T04:45:18;99219.63;;;11.58;100.00
21902;BME280;11115;46.038;14.612;2023-10-09T04:48:23;99211.25;;;11.63;100.00
21902;BME280;11115;46.038;14.612;2023-10-09T04:51:17;99200.81;;;11.73;100.00
21902;BME280;11115;46.038;14.612;2023-10-09T04:53:55;99198.72;;;11.65;100.00
21902;BME280;11115;46.038;14.612;2023-10-09T04:56:46;99206.81;;;11.62;100.00
21902;BME280;11115;46.038;14.612;2023-10-09T04:59:23;99207.03;;;11.46;100.00
21902;BME280;11115;46.038;14.612;2023-10-09T05:01:54;99196.13;;;11.31;100.00
21902;BME280;11115;46.038;14.612;2023-10-09T05:04:34;99203.81;;;11.39;100.00
21902;BME280;11115;46.038;14.612;2023-10-09T05:07:19;99187.59;;;11.28;100.00
21902;BME280;11115;46.038;14.612;2023-10-09T05:10:24;99192.16;;;11.18;100.00
21902;BME280;11115;46.038;14.612;2023-10-09T05:12:59;99183.25;;;11.21;100.00
21902;BME280;11115;46.038;14.612;2023-10-09T05:15:28;99194.41;;;11.35;100.00
21902;BME280;11115;46.038;14.612;2023-10-09T05:18:08;99180.97;;;11.47;100.00
21902;BME280;11115;46.038;14.612;2023-10-09T05:20:51;99191.50;;;11.27;100.00
21902;BME280;11115;46.038;14.612;2023-10-09T05:23:49;99193.44;;;11.26;100.00
21902;BME280;11115;46.038;14.612;2023-10-09T05:26:48;99194.56;;;11.25;100.00
21902;BME280;11115;46.038;14.612;2023-10-09T05:29:51;99189.78;;;11.31;100.00
21902;BME280;11115;46.038;14.612;2023-10-09T05:32:28;99180.19;;;11.23;100.00
21902;BME280;11115;46.038;14.612;2023-10-09T05:35:18;99183.19;;;11.27;100.00
21902;BME280;11115;46.038;14.612;2023-10-09T05:37:59;99179.59;;;11.26;100.00
21902;BME280;11115;46.038;14.612;2023-10-09T05:40:35;99182.81;;;11.33;100.00
21902;BME280;11115;46.038;14.612;2023-10-09T05:43:11;99182.88;;;11.28;100.00
21902;BME280;11115;46.038;14.612;2023-10-09T05:46:07;99183.59;;;11.39;100.00
21902;BME280;11115;46.038;14.612;2023-10-09T05:48:51;99183.75;;;11.47;100.00
21902;BME280;11115;46.038;14.612;2023-10-09T05:51:37;99179.09;;;11.43;100.00
21902;BME280;11115;46.038;14.612;2023-10-09T05:54:16;99177.59;;;11.50;100.00
21902;BME280;11115;46.038;14.612;2023-10-09T05:56:59;99187.22;;;11.58;100.00
21902;BME280;11115;46.038;14.612;2023-10-09T05:59:48;99181.41;;;11.54;100.00
21902;BME280;11115;46.038;14.612;2023-10-09T06:02:40;99166.91;;;11.63;100.00
21902;BME280;11115;46.038;14.612;2023-10-09T06:05:35;99174.22;;;11.53;100.00
21902;BME280;11115;46.038;14.612;2023-10-09T06:08:31;99167.66;;;11.68;100.00
21902;BME280;11115;46.038;14.612;2023-10-09T06:11:45;99171.47;;;11.72;100.00
21902;BME280;11115;46.038;14.612;2023-10-09T06:14:25;99164.88;;;11.68;100.00
21902;BME280;11115;46.038;14.612;2023-10-09T06:17:21;99165.59;;;11.79;100.00
21902;BME280;11115;46.038;14.612;2023-10-09T06:19:57;99163.25;;;11.86;100.00
21902;BME280;11115;46.038;14.612;2023-10-09T06:22:58;99155.31;;;11.98;100.00
21902;BME280;11115;46.038;14.612;2023-10-09T06:25:46;99163.16;;;11.91;100.00
21902;BME280;11115;46.038;14.612;2023-10-09T06:28:19;99165.88;;;11.96;100.00
21902;BME280;11115;46.038;14.612;2023-10-09T06:31:02;99157.06;;;12.08;100.00
21902;BME280;11115;46.038;14.612;2023-10-09T06:33:56;99167.16;;;11.85;100.00
21902;BME280;11115;46.038;14.612;2023-10-09T06:36:49;99158.13;;;11.93;100.00
21902;BME280;11115;46.038;14.612;2023-10-09T06:39:40;99152.72;;;12.21;100.00
21902;BME280;11115;46.038;14.612;2023-10-09T06:42:45;99154.25;;;12.27;100.00
21902;BME280;11115;46.038;14.612;2023-10-09T06:45:31;99158.59;;;12.33;100.00
21902;BME280;11115;46.038;14.612;2023-10-09T06:48:15;99150.06;;;12.29;100.00
21902;BME280;11115;46.038;14.612;2023-10-09T06:51:09;99156.56;;;12.52;100.00
21902;BME280;11115;46.038;14.612;2023-10-09T06:54:07;99156.00;;;12.55;100.00
21902;BME280;11115;46.038;14.612;2023-10-09T06:56:38;99150.06;;;12.75;100.00
21902;BME280;11115;46.038;14.612;2023-10-09T06:59:24;99155.09;;;12.87;100.00
21902;BME280;11115;46.038;14.612;2023-10-09T07:02:12;99132.13;;;13.09;100.00
21902;BME280;11115;46.038;14.612;2023-10-09T07:04:55;99142.66;;;13.26;100.00
21902;BME280;11115;46.038;14.612;2023-10-09T07:07:41;99140.66;;;13.54;100.00
21902;BME280;11115;46.038;14.612;2023-10-09T07:10:22;99126.78;;;13.40;100.00
21902;BME280;11115;46.038;14.612;2023-10-09T07:13:09;99133.78;;;13.38;100.00
21902;BME280;11115;46.038;14.612;2023-10-09T07:15:42;99132.63;;;13.52;100.00
21902;BME280;11115;46.038;14.612;2023-10-09T07:18:41;99126.50;;;13.64;100.00
21902;BME280;11115;46.038;14.612;2023-10-09T07:21:39;99119.72;;;13.92;100.00
21902;BME280;11115;46.038;14.612;2023-10-09T07:24:23;99118.72;;;14.11;100.00
21902;BME280;11115;46.038;14.612;2023-10-09T07:27:12;99120.91;;;14.22;100.00
21902;BME280;11115;46.038;14.612;2023-10-09T07:29:55;99116.06;;;14.28;100.00
21902;BME280;11115;46.038;14.612;2023-10-09T07:32:31;99112.00;;;14.34;100.00
21902;BME280;11115;46.038;14.612;2023-10-09T07:35:04;99106.41;;;14.34;100.00
21902;BME280;11115;46.038;14.612;2023-10-09T07:37:36;99121.34;;;14.38;100.00
21902;BME280;11115;46.038;14.612;2023-10-09T07:40:08;99110.69;;;14.63;100.00
21902;BME280;11115;46.038;14.612;2023-10-09T07:42:51;99105.91;;;14.54;100.00
21902;BME280;11115;46.038;14.612;2023-10-09T07:45:21;99104.59;;;14.52;100.00
21902;BME280;11115;46.038;14.612;2023-10-09T07:48:05;99090.28;;;14.76;100.00
21902;BME280;11115;46.038;14.612;2023-10-09T07:50:47;99096.19;;;14.83;100.00
21902;BME280;11115;46.038;14.612;2023-10-09T07:53:29;99100.50;;;14.89;100.00
21902;BME280;11115;46.038;14.612;2023-10-09T07:56:11;99092.09;;;14.80;100.00
21902;BME280;11115;46.038;14.612;2023-10-09T07:58:41;99095.09;;;14.93;100.00
21902;BME280;11115;46.038;14.612;2023-10-09T08:01:26;99089.03;;;14.99;100.00
21902;BME280;11115;46.038;14.612;2023-10-09T08:04:11;99086.75;;;15.01;100.00
21902;BME280;11115;46.038;14.612;2023-10-09T08:06:44;99084.28;;;15.00;100.00
21902;BME280;11115;46.038;14.612;2023-10-09T08:09:35;99070.69;;;14.98;100.00
21902;BME280;11115;46.038;14.612;2023-10-09T08:12:30;99078.78;;;15.26;100.00
21902;BME280;11115;46.038;14.612;2023-10-09T08:15:30;99058.59;;;15.20;100.00
21902;BME280;11115;46.038;14.612;2023-10-09T08:18:18;99067.16;;;15.24;100.00
21902;BME280;11115;46.038;14.612;2023-10-09T08:21:02;99054.19;;;15.36;100.00
21902;BME280;11115;46.038;14.612;2023-10-09T08:24:13;99050.75;;;15.48;100.00
21902;BME280;11115;46.038;14.612;2023-10-09T08:27:00;99042.72;;;15.55;100.00
21902;BME280;11115;46.038;14.612;2023-10-09T08:29:49;98996.47;;;15.11;100.00
21902;BME280;11115;46.038;14.612;2023-10-09T08:32:43;99036.81;;;15.31;100.00
21902;BME280;11115;46.038;14.612;2023-10-09T08:35:36;98993.19;;;15.52;100.00
21902;BME280;11115;46.038;14.612;2023-10-09T08:38:18;99024.94;;;16.12;100.00
21902;BME280;11115;46.038;14.612;2023-10-09T08:41:21;99028.69;;;16.24;100.00
21902;BME280;11115;46.038;14.612;2023-10-09T08:44:11;99023.06;;;16.33;100.00
21902;BME280;11115;46.038;14.612;2023-10-09T08:46:58;99017.78;;;15.85;100.00
21902;BME280;11115;46.038;14.612;2023-10-09T08:49:38;99012.19;;;16.02;100.00
21902;BME280;11115;46.038;14.612;2023-10-09T08:52:18;99014.56;;;16.29;100.00
21902;BME280;11115;46.038;14.612;2023-10-09T08:54:52;99001.97;;;16.53;100.00
21902;BME280;11115;46.038;14.612;2023-10-09T08:57:38;99000.56;;;16.76;100.00
21902;BME280;11115;46.038;14.612;2023-10-09T09:00:21;99005.88;;;16.22;100.00
21902;BME280;11115;46.038;14.612;2023-10-09T09:03:06;99000.00;;;16.06;100.00
21902;BME280;11115;46.038;14.612;2023-10-09T09:06:02;98994.53;;;16.19;100.00
21902;BME280;11115;46.038;14.612;2023-10-09T09:08:42;98992.09;;;16.17;100.00
21902;BME280;11115;46.038;14.612;2023-10-09T09:11:23;98983.88;;;16.59;100.00
21902;BME280;11115;46.038;14.612;2023-10-09T09:14:05;98985.22;;;16.53;100.00
21902;BME280;11115;46.038;14.612;2023-10-09T09:16:45;98987.59;;;16.33;100.00
21902;BME280;11115;46.038;14.612;2023-10-09T09:19:18;98983.09;;;16.50;100.00
21902;BME280;11115;46.038;14.612;2023-10-09T09:22:00;98987.75;;;16.75;100.00
21902;BME280;11115;46.038;14.612;2023-10-09T09:24:59;98980.53;;;16.95;100.00
21902;BME280;11115;46.038;14.612;2023-10-09T09:27:47;98974.22;;;17.07;100.00
21902;BME280;11115;46.038;14.612;2023-10-09T09:30:26;98975.03;;;17.07;100.00
21902;BME280;11115;46.038;14.612;2023-10-09T09:33:18;98970.88;;;16.92;100.00
21902;BME280;11115;46.038;14.612;2023-10-09T09:36:01;98960.69;;;17.17;100.00
21902;BME280;11115;46.038;14.612;2023-10-09T09:38:42;98951.38;;;17.46;100.00
21902;BME280;11115;46.038;14.612;2023-10-09T09:41:19;98947.53;;;17.18;100.00
21902;BME280;11115;46.038;14.612;2023-10-09T09:43:58;98939.06;;;17.80;100.00
21902;BME280;11115;46.038;14.612;2023-10-09T09:46:32;98936.53;;;18.12;100.00
21902;BME280;11115;46.038;14.612;2023-10-09T09:49:07;98936.44;;;18.20;100.00
21902;BME280;11115;46.038;14.612;2023-10-09T09:51:46;98926.38;;;18.07;100.00
21902;BME280;11115;46.038;14.612;2023-10-09T09:54:16;98910.16;;;18.01;100.00
21902;BME280;11115;46.038;14.612;2023-10-09T09:56:56;98928.06;;;18.33;100.00
21902;BME280;11115;46.038;14.612;2023-10-09T09:59:30;98919.28;;;17.98;100.00
21902;BME280;11115;46.038;14.612;2023-10-09T10:02:04;98917.81;;;17.79;100.00
21902;BME280;11115;46.038;14.612;2023-10-09T10:04:52;98923.81;;;18.02;100.00
21902;BME280;11115;46.038;14.612;2023-10-09T10:07:26;98927.09;;;18.04;100.00
21902;BME280;11115;46.038;14.612;2023-10-09T10:10:40;98920.31;;;18.05;100.00
21902;BME280;11115;46.038;14.612;2023-10-09T10:14:08;98909.13;;;18.30;100.00
21902;BME280;11115;46.038;14.612;2023-10-09T10:17:06;98907.84;;;18.27;100.00
21902;BME280;11115;46.038;14.612;2023-10-09T10:20:06;98898.41;;;18.32;100.00
21902;BME280;11115;46.038;14.612;2023-10-09T10:25:54;98885.22;;;18.20;100.00
21902;BME280;11115;46.038;14.612;2023-10-09T10:28:31;98887.53;;;18.06;100.00
21902;BME280;11115;46.038;14.612;2023-10-09T10:31:15;98864.56;;;18.25;100.00
21902;BME280;11115;46.038;14.612;2023-10-09T10:36:34;98874.56;;;18.62;100.00
21902;BME280;11115;46.038;14.612;2023-10-09T10:39:11;98871.31;;;18.72;100.00
21902;BME280;11115;46.038;14.612;2023-10-09T10:41:54;98864.09;;;19.27;100.00
21902;BME280;11115;46.038;14.612;2023-10-09T10:44:30;98857.66;;;19.11;100.00
21902;BME280;11115;46.038;14.612;2023-10-09T10:47:08;98820.31;;;19.23;100.00
21902;BME280;11115;46.038;14.612;2023-10-09T10:49:54;98850.03;;;19.39;100.00
21902;BME280;11115;46.038;14.612;2023-10-09T10:52:27;98840.22;;;19.18;100.00
21902;BME280;11115;46.038;14.612;2023-10-09T10:55:26;98836.91;;;19.44;100.00
21902;BME280;11115;46.038;14.612;2023-10-09T10:58:19;98831.97;;;19.25;100.00
21902;BME280;11115;46.038;14.612;2023-10-09T11:01:05;98819.59;;;19.85;100.00
21902;BME280;11115;46.038;14.612;2023-10-09T11:03:51;98809.38;;;20.09;100.00
21902;BME280;11115;46.038;14.612;2023-10-09T11:06:50;98813.72;;;19.90;100.00
21902;BME280;11115;46.038;14.612;2023-10-09T11:09:45;98813.44;;;19.64;100.00
21902;BME280;11115;46.038;14.612;2023-10-09T11:12:31;98805.09;;;19.99;100.00
21902;BME280;11115;46.038;14.612;2023-10-09T11:15:13;98804.94;;;19.76;100.00
21902;BME280;11115;46.038;14.612;2023-10-09T11:18:04;98794.31;;;19.85;100.00
21902;BME280;11115;46.038;14.612;2023-10-09T11:20:41;98794.06;;;19.90;100.00
21902;BME280;11115;46.038;14.612;2023-10-09T11:23:33;98787.94;;;19.69;100.00
21902;BME280;11115;46.038;14.612;2023-10-09T11:26:28;98786.47;;;19.75;100.00
21902;BME280;11115;46.038;14.612;2023-10-09T11:29:13;98782.66;;;19.83;100.00
21902;BME280;11115;46.038;14.612;2023-10-09T11:32:03;98775.31;;;19.79;100.00
21902;BME280;11115;46.038;14.612;2023-10-09T11:34:41;98768.91;;;19.78;100.00
21902;BME280;11115;46.038;14.612;2023-10-09T11:37:24;98763.84;;;20.19;100.00
21902;BME280;11115;46.038;14.612;2023-10-09T11:40:31;98760.00;;;20.08;100.00
21902;BME280;11115;46.038;14.612;2023-10-09T11:43:45;98753.41;;;20.35;100.00
21902;BME280;11115;46.038;14.612;2023-10-09T11:46:28;98751.25;;;20.64;100.00
21902;BME280;11115;46.038;14.612;2023-10-09T11:49:26;98748.66;;;20.74;100.00
21902;BME280;11115;46.038;14.612;2023-10-09T11:52:07;98741.84;;;20.75;100.00
21902;BME280;11115;46.038;14.612;2023-10-09T11:55:22;98736.13;;;20.91;100.00
21902;BME280;11115;46.038;14.612;2023-10-09T11:57:55;98731.28;;;20.69;100.00
21902;BME280;11115;46.038;14.612;2023-10-09T12:00:28;98735.09;;;20.80;100.00
21902;BME280;11115;46.038;14.612;2023-10-09T12:03:17;98727.56;;;20.65;100.00
21902;BME280;11115;46.038;14.612;2023-10-09T12:06:04;98724.53;;;21.15;100.00
21902;BME280;11115;46.038;14.612;2023-10-09T12:08:48;98726.22;;;21.20;100.00
21902;BME280;11115;46.038;14.612;2023-10-09T12:11:21;98719.03;;;21.42;100.00
21902;BME280;11115;46.038;14.612;2023-10-09T12:14:11;98700.38;;;21.34;100.00
21902;BME280;11115;46.038;14.612;2023-10-09T12:16:43;98704.69;;;21.50;100.00
21902;BME280;11115;46.038;14.612;2023-10-09T12:19:22;98693.69;;;21.65;100.00
21902;BME280;11115;46.038;14.612;2023-10-09T12:22:01;98681.38;;;22.29;100.00
21902;BME280;11115;46.038;14.612;2023-10-09T12:24:38;98687.19;;;23.07;100.00
21902;BME280;11115;46.038;14.612;2023-10-09T12:27:11;98664.41;;;22.89;100.00
21902;BME280;11115;46.038;14.612;2023-10-09T12:29:42;98676.56;;;23.82;100.00
21902;BME280;11115;46.038;14.612;2023-10-09T12:32:22;98676.28;;;23.98;100.00
21902;BME280;11115;46.038;14.612;2023-10-09T12:34:55;98665.69;;;23.87;100.00
21902;BME280;11115;46.038;14.612;2023-10-09T12:37:31;98655.91;;;23.71;100.00
21902;BME280;11115;46.038;14.612;2023-10-09T12:40:05;98657.31;;;23.02;100.00
21902;BME280;11115;46.038;14.612;2023-10-09T12:42:41;98652.63;;;22.80;100.00
21902;BME280;11115;46.038;14.612;2023-10-09T12:45:27;98659.72;;;23.00;100.00
21902;BME280;11115;46.038;14.612;2023-10-09T12:48:05;98662.53;;;23.00;100.00
21902;BME280;11115;46.038;14.612;2023-10-09T12:50:42;98666.06;;;22.94;100.00
21902;BME280;11115;46.038;14.612;2023-10-09T12:53:13;98647.84;;;22.51;100.00
21902;BME280;11115;46.038;14.612;2023-10-09T12:55:50;98641.63;;;22.71;100.00
21902;BME280;11115;46.038;14.612;2023-10-09T12:58:25;98644.59;;;22.49;100.00
21902;BME280;11115;46.038;14.612;2023-10-09T13:01:00;98649.19;;;22.00;100.00
21902;BME280;11115;46.038;14.612;2023-10-09T13:03:39;98635.47;;;21.99;100.00
21902;BME280;11115;46.038;14.612;2023-10-09T13:06:20;98642.41;;;22.05;100.00
21902;BME280;11115;46.038;14.612;2023-10-09T13:08:53;98637.94;;;22.04;100.00
21902;BME280;11115;46.038;14.612;2023-10-09T13:11:30;98629.75;;;21.95;100.00
21902;BME280;11115;46.038;14.612;2023-10-09T13:13:59;98641.13;;;21.99;100.00
21902;BME280;11115;46.038;14.612;2023-10-09T13:16:54;98631.34;;;21.93;100.00
21902;BME280;11115;46.038;14.612;2023-10-09T13:19:28;98624.41;;;22.13;100.00
21902;BME280;11115;46.038;14.612;2023-10-09T13:22:01;98622.50;;;22.21;100.00
21902;BME280;11115;46.038;14.612;2023-10-09T13:24:42;98624.00;;;22.78;100.00
21902;BME280;11115;46.038;14.612;2023-10-09T13:27:23;98606.09;;;23.00;100.00
21902;BME280;11115;46.038;14.612;2023-10-09T13:29:53;98594.16;;;23.18;100.00
21902;BME280;11115;46.038;14.612;2023-10-09T13:32:37;98617.09;;;23.57;100.00
21902;BME280;11115;46.038;14.612;2023-10-09T13:35:17;98603.16;;;23.85;100.00
21902;BME280;11115;46.038;14.612;2023-10-09T13:37:56;98600.19;;;23.68;100.00
21902;BME280;11115;46.038;14.612;2023-10-09T13:40:29;98598.09;;;23.54;100.00
21902;BME280;11115;46.038;14.612;2023-10-09T13:43:01;98604.41;;;23.37;100.00
21902;BME280;11115;46.038;14.612;2023-10-09T13:45:44;98606.03;;;23.41;100.00
21902;BME280;11115;46.038;14.612;2023-10-09T13:48:18;98598.50;;;23.56;100.00
21902;BME280;11115;46.038;14.612;2023-10-09T13:50:57;98604.44;;;23.44;100.00
21902;BME280;11115;46.038;14.612;2023-10-09T13:53:36;98604.59;;;23.58;100.00
21902;BME280;11115;46.038;14.612;2023-10-09T13:56:18;98603.63;;;23.40;100.00
21902;BME280;11115;46.038;14.612;2023-10-09T13:58:53;98592.56;;;23.20;100.00
21902;BME280;11115;46.038;14.612;2023-10-09T14:01:26;98583.63;;;23.11;100.00
21902;BME280;11115;46.038;14.612;2023-10-09T14:04:01;98587.47;;;22.92;100.00
21902;BME280;11115;46.038;14.612;2023-10-09T14:06:35;98589.25;;;22.70;100.00
21902;BME280;11115;46.038;14.612;2023-10-09T14:09:08;98581.09;;;22.58;100.00